Information Last Ob Photographs Calibration Meteogram Network Table Neighbors Monthly Summaries Observation History Wind Roses Custom Wind Roses Data Calendar Satellite Cloud Product Download

Satellite Cloud Product

NESDIS produces a Satellite Cloud Product (SCP) that supplements the ASOS ceilometer readings. This page merges the SCP data with the METAR observations for a given UTC date. Cloud level values are presented in feet above ground level. ECA represents estimated cloud amount expressed in percentage. An IEM Web Service provided the following JSON dataset for this page. Data is available for some sites back to 1993.

Year: Month: Day: Time Order:

 

SCP Valid UTCSatellite East SounderSatellite West SounderASOS METAR Report
Mid CloudsHigh CloudsLevels [ft]ECA [%]Mid CloudsHigh CloudsLevels [ft]ECA [%]Levels ftMETAR
0050ZCLR-0CLR-0CLR KHPT 250055Z AUTO 18009KT 10SM CLR 05/M07 A2979 RMK AO2
0150ZCLR-0CLR-0CLR KHPT 250155Z AUTO 19009KT 10SM CLR 04/M07 A2979 RMK AO2
0250ZCLR-0CLR-0CLR KHPT 250255Z AUTO 20014KT 10SM CLR 05/M06 A2978 RMK AO2
0350ZCLR-0CLR-0CLR KHPT 250355Z AUTO 20013G19KT 10SM CLR 04/M06 A2976 RMK AO2